sensor_id;sensor_type;location;lat;lon;timestamp;P1;durP1;ratioP1;P2;durP2;ratioP2
842;SDS011;407;48.884;9.126;2023-03-19T00:01:11;13.20;;;6.10;;
842;SDS011;407;48.884;9.126;2023-03-19T00:03:37;14.13;;;5.70;;
842;SDS011;407;48.884;9.126;2023-03-19T00:06:03;12.48;;;5.30;;
842;SDS011;407;48.884;9.126;2023-03-19T00:08:28;13.20;;;5.32;;
842;SDS011;407;48.884;9.126;2023-03-19T00:10:54;10.77;;;5.20;;
842;SDS011;407;48.884;9.126;2023-03-19T00:13:19;13.05;;;4.90;;
842;SDS011;407;48.884;9.126;2023-03-19T00:15:45;11.20;;;4.90;;
842;SDS011;407;48.884;9.126;2023-03-19T00:18:13;12.10;;;5.50;;
842;SDS011;407;48.884;9.126;2023-03-19T00:20:38;11.88;;;5.65;;
842;SDS011;407;48.884;9.126;2023-03-19T00:23:04;10.13;;;4.90;;
842;SDS011;407;48.884;9.126;2023-03-19T00:25:30;10.55;;;5.10;;
842;SDS011;407;48.884;9.126;2023-03-19T00:27:57;11.35;;;5.53;;
842;SDS011;407;48.884;9.126;2023-03-19T00:30:23;11.10;;;5.30;;
842;SDS011;407;48.884;9.126;2023-03-19T00:32:49;10.85;;;4.60;;
842;SDS011;407;48.884;9.126;2023-03-19T00:35:14;11.10;;;5.00;;
842;SDS011;407;48.884;9.126;2023-03-19T00:37:40;10.45;;;5.10;;
842;SDS011;407;48.884;9.126;2023-03-19T00:40:06;13.37;;;5.50;;
842;SDS011;407;48.884;9.126;2023-03-19T00:42:32;10.57;;;4.82;;
842;SDS011;407;48.884;9.126;2023-03-19T00:44:58;10.50;;;5.10;;
842;SDS011;407;48.884;9.126;2023-03-19T00:47:24;11.55;;;4.70;;
842;SDS011;407;48.884;9.126;2023-03-19T00:49:51;12.68;;;4.40;;
842;SDS011;407;48.884;9.126;2023-03-19T00:52:17;9.83;;;4.90;;
842;SDS011;407;48.884;9.126;2023-03-19T00:54:42;11.43;;;5.45;;
842;SDS011;407;48.884;9.126;2023-03-19T00:57:08;10.73;;;4.70;;
842;SDS011;407;48.884;9.126;2023-03-19T00:59:34;11.95;;;5.47;;
842;SDS011;407;48.884;9.126;2023-03-19T01:02:00;9.83;;;5.10;;
842;SDS011;407;48.884;9.126;2023-03-19T01:04:25;10.50;;;4.85;;
842;SDS011;407;48.884;9.126;2023-03-19T01:06:51;11.30;;;4.93;;
842;SDS011;407;48.884;9.126;2023-03-19T01:09:17;10.15;;;5.03;;
842;SDS011;407;48.884;9.126;2023-03-19T01:11:42;16.10;;;5.50;;
842;SDS011;407;48.884;9.126;2023-03-19T01:14:08;9.57;;;4.70;;
842;SDS011;407;48.884;9.126;2023-03-19T01:16:34;10.70;;;5.45;;
842;SDS011;407;48.884;9.126;2023-03-19T01:19:00;11.43;;;5.00;;
842;SDS011;407;48.884;9.126;2023-03-19T01:21:26;11.73;;;5.00;;
842;SDS011;407;48.884;9.126;2023-03-19T01:23:55;10.75;;;5.38;;
842;SDS011;407;48.884;9.126;2023-03-19T01:26:21;9.40;;;4.70;;
842;SDS011;407;48.884;9.126;2023-03-19T01:28:47;11.23;;;5.00;;
842;SDS011;407;48.884;9.126;2023-03-19T01:31:13;10.38;;;5.07;;
842;SDS011;407;48.884;9.126;2023-03-19T01:33:38;11.60;;;4.60;;
842;SDS011;407;48.884;9.126;2023-03-19T01:36:04;12.13;;;4.73;;
842;SDS011;407;48.884;9.126;2023-03-19T01:38:31;10.95;;;4.90;;
842;SDS011;407;48.884;9.126;2023-03-19T01:40:56;13.17;;;4.90;;
842;SDS011;407;48.884;9.126;2023-03-19T01:43:28;10.85;;;4.75;;
842;SDS011;407;48.884;9.126;2023-03-19T01:45:59;12.20;;;4.90;;
842;SDS011;407;48.884;9.126;2023-03-19T01:51:01;11.57;;;4.60;;
842;SDS011;407;48.884;9.126;2023-03-19T01:53:28;13.55;;;4.97;;
842;SDS011;407;48.884;9.126;2023-03-19T01:55:58;11.05;;;4.70;;
842;SDS011;407;48.884;9.126;2023-03-19T01:58:30;8.40;;;3.93;;
842;SDS011;407;48.884;9.126;2023-03-19T02:00:56;9.90;;;4.20;;
842;SDS011;407;48.884;9.126;2023-03-19T02:03:23;9.70;;;4.28;;
842;SDS011;407;48.884;9.126;2023-03-19T02:05:49;9.32;;;3.78;;
842;SDS011;407;48.884;9.126;2023-03-19T02:08:16;7.53;;;3.00;;
842;SDS011;407;48.884;9.126;2023-03-19T02:10:45;9.60;;;3.30;;
842;SDS011;407;48.884;9.126;2023-03-19T02:13:12;8.38;;;2.80;;
842;SDS011;407;48.884;9.126;2023-03-19T02:15:38;9.05;;;3.10;;
842;SDS011;407;48.884;9.126;2023-03-19T02:18:04;8.95;;;3.25;;
842;SDS011;407;48.884;9.126;2023-03-19T02:20:32;7.93;;;2.60;;
842;SDS011;407;48.884;9.126;2023-03-19T02:28:46;8.13;;;2.28;;
842;SDS011;407;48.884;9.126;2023-03-19T02:31:14;6.53;;;2.10;;
842;SDS011;407;48.884;9.126;2023-03-19T02:33:41;7.45;;;2.63;;
842;SDS011;407;48.884;9.126;2023-03-19T02:36:13;6.78;;;2.55;;
842;SDS011;407;48.884;9.126;2023-03-19T02:38:42;8.05;;;2.80;;
842;SDS011;407;48.884;9.126;2023-03-19T02:41:09;7.88;;;2.78;;
842;SDS011;407;48.884;9.126;2023-03-19T02:43:37;9.33;;;2.70;;
842;SDS011;407;48.884;9.126;2023-03-19T02:46:05;7.47;;;2.70;;
842;SDS011;407;48.884;9.126;2023-03-19T02:48:34;6.70;;;2.60;;
842;SDS011;407;48.884;9.126;2023-03-19T02:51:01;7.50;;;2.72;;
842;SDS011;407;48.884;9.126;2023-03-19T02:53:29;6.75;;;2.90;;
842;SDS011;407;48.884;9.126;2023-03-19T02:55:55;7.20;;;2.90;;
842;SDS011;407;48.884;9.126;2023-03-19T02:58:20;10.95;;;3.60;;
842;SDS011;407;48.884;9.126;2023-03-19T03:00:46;9.50;;;3.00;;
842;SDS011;407;48.884;9.126;2023-03-19T03:03:12;7.85;;;3.40;;
842;SDS011;407;48.884;9.126;2023-03-19T03:05:39;10.65;;;3.50;;
842;SDS011;407;48.884;9.126;2023-03-19T03:08:04;7.50;;;3.03;;
842;SDS011;407;48.884;9.126;2023-03-19T03:10:31;9.13;;;3.30;;
842;SDS011;407;48.884;9.126;2023-03-19T03:12:57;9.75;;;3.65;;
842;SDS011;407;48.884;9.126;2023-03-19T03:15:23;10.52;;;5.80;;
842;SDS011;407;48.884;9.126;2023-03-19T03:17:49;10.43;;;3.70;;
842;SDS011;407;48.884;9.126;2023-03-19T03:20:15;8.38;;;3.40;;
842;SDS011;407;48.884;9.126;2023-03-19T03:22:42;7.00;;;2.80;;
842;SDS011;407;48.884;9.126;2023-03-19T03:25:08;8.38;;;3.25;;
842;SDS011;407;48.884;9.126;2023-03-19T03:27:35;7.37;;;2.70;;
842;SDS011;407;48.884;9.126;2023-03-19T03:30:03;7.50;;;3.20;;
842;SDS011;407;48.884;9.126;2023-03-19T03:32:30;6.67;;;2.90;;
842;SDS011;407;48.884;9.126;2023-03-19T03:34:56;6.57;;;2.65;;
842;SDS011;407;48.884;9.126;2023-03-19T03:37:21;11.83;;;3.27;;
842;SDS011;407;48.884;9.126;2023-03-19T03:39:47;7.57;;;2.80;;
842;SDS011;407;48.884;9.126;2023-03-19T03:42:12;7.70;;;3.30;;
842;SDS011;407;48.884;9.126;2023-03-19T03:44:38;8.60;;;3.03;;
842;SDS011;407;48.884;9.126;2023-03-19T03:47:04;8.10;;;2.70;;
842;SDS011;407;48.884;9.126;2023-03-19T03:49:30;9.20;;;2.83;;
842;SDS011;407;48.884;9.126;2023-03-19T03:51:56;10.43;;;3.27;;
842;SDS011;407;48.884;9.126;2023-03-19T03:54:21;8.55;;;2.70;;
842;SDS011;407;48.884;9.126;2023-03-19T03:56:47;8.37;;;3.20;;
842;SDS011;407;48.884;9.126;2023-03-19T03:59:14;7.35;;;2.80;;
842;SDS011;407;48.884;9.126;2023-03-19T04:01:40;7.78;;;2.30;;
842;SDS011;407;48.884;9.126;2023-03-19T04:04:06;6.87;;;2.60;;
842;SDS011;407;48.884;9.126;2023-03-19T04:06:31;6.40;;;2.40;;
842;SDS011;407;48.884;9.126;2023-03-19T04:08:57;8.70;;;2.60;;
842;SDS011;407;48.884;9.126;2023-03-19T04:11:22;9.20;;;2.60;;
842;SDS011;407;48.884;9.126;2023-03-19T04:13:48;7.50;;;2.80;;
842;SDS011;407;48.884;9.126;2023-03-19T04:16:14;7.87;;;2.30;;
842;SDS011;407;48.884;9.126;2023-03-19T04:18:40;6.05;;;2.50;;
842;SDS011;407;48.884;9.126;2023-03-19T04:21:06;6.93;;;2.40;;
842;SDS011;407;48.884;9.126;2023-03-19T04:23:33;6.82;;;2.40;;
842;SDS011;407;48.884;9.126;2023-03-19T04:25:59;7.68;;;2.50;;
842;SDS011;407;48.884;9.126;2023-03-19T04:28:26;9.02;;;2.78;;
842;SDS011;407;48.884;9.126;2023-03-19T04:30:57;8.70;;;3.00;;
842;SDS011;407;48.884;9.126;2023-03-19T04:33:24;11.90;;;2.80;;
842;SDS011;407;48.884;9.126;2023-03-19T04:35:50;9.13;;;3.50;;
842;SDS011;407;48.884;9.126;2023-03-19T04:38:16;8.55;;;3.50;;
842;SDS011;407;48.884;9.126;2023-03-19T04:40:42;8.07;;;3.20;;
842;SDS011;407;48.884;9.126;2023-03-19T04:43:08;9.00;;;3.40;;
842;SDS011;407;48.884;9.126;2023-03-19T04:45:33;7.87;;;3.60;;
842;SDS011;407;48.884;9.126;2023-03-19T04:47:59;8.82;;;3.85;;
842;SDS011;407;48.884;9.126;2023-03-19T04:50:25;9.93;;;3.85;;
842;SDS011;407;48.884;9.126;2023-03-19T04:52:52;7.10;;;3.53;;
842;SDS011;407;48.884;9.126;2023-03-19T04:55:17;9.80;;;4.10;;
842;SDS011;407;48.884;9.126;2023-03-19T04:57:43;8.88;;;4.00;;
842;SDS011;407;48.884;9.126;2023-03-19T05:00:09;8.53;;;4.47;;
842;SDS011;407;48.884;9.126;2023-03-19T05:02:35;7.65;;;3.45;;
842;SDS011;407;48.884;9.126;2023-03-19T05:05:01;10.95;;;4.28;;
842;SDS011;407;48.884;9.126;2023-03-19T05:07:27;8.88;;;3.95;;
842;SDS011;407;48.884;9.126;2023-03-19T05:09:52;9.13;;;3.80;;
842;SDS011;407;48.884;9.126;2023-03-19T05:12:18;8.90;;;3.80;;
842;SDS011;407;48.884;9.126;2023-03-19T05:14:43;7.65;;;3.40;;
842;SDS011;407;48.884;9.126;2023-03-19T05:17:09;10.97;;;4.17;;
842;SDS011;407;48.884;9.126;2023-03-19T05:19:35;11.20;;;4.28;;
842;SDS011;407;48.884;9.126;2023-03-19T05:22:03;8.80;;;4.22;;
842;SDS011;407;48.884;9.126;2023-03-19T05:24:28;10.20;;;4.23;;
842;SDS011;407;48.884;9.126;2023-03-19T05:26:54;10.57;;;4.78;;
842;SDS011;407;48.884;9.126;2023-03-19T05:29:21;11.13;;;5.30;;
842;SDS011;407;48.884;9.126;2023-03-19T05:31:47;11.88;;;5.18;;
842;SDS011;407;48.884;9.126;2023-03-19T05:34:12;11.20;;;5.40;;
842;SDS011;407;48.884;9.126;2023-03-19T05:36:40;11.98;;;5.38;;
842;SDS011;407;48.884;9.126;2023-03-19T05:39:05;11.50;;;5.47;;
842;SDS011;407;48.884;9.126;2023-03-19T05:41:32;9.88;;;5.10;;
842;SDS011;407;48.884;9.126;2023-03-19T05:43:57;11.93;;;5.30;;
842;SDS011;407;48.884;9.126;2023-03-19T05:46:23;10.63;;;5.72;;
842;SDS011;407;48.884;9.126;2023-03-19T05:48:49;12.85;;;5.50;;
842;SDS011;407;48.884;9.126;2023-03-19T05:51:15;12.18;;;6.00;;
842;SDS011;407;48.884;9.126;2023-03-19T05:53:41;11.65;;;5.60;;
842;SDS011;407;48.884;9.126;2023-03-19T05:56:06;12.33;;;6.00;;
842;SDS011;407;48.884;9.126;2023-03-19T05:58:32;12.60;;;5.80;;
842;SDS011;407;48.884;9.126;2023-03-19T06:00:58;11.93;;;5.90;;
842;SDS011;407;48.884;9.126;2023-03-19T06:03:24;11.07;;;5.60;;
842;SDS011;407;48.884;9.126;2023-03-19T06:05:51;12.15;;;5.50;;
842;SDS011;407;48.884;9.126;2023-03-19T06:08:17;13.20;;;5.43;;
842;SDS011;407;48.884;9.126;2023-03-19T06:10:43;10.65;;;5.40;;
842;SDS011;407;48.884;9.126;2023-03-19T06:13:09;11.10;;;5.43;;
842;SDS011;407;48.884;9.126;2023-03-19T06:15:35;11.68;;;4.70;;
842;SDS011;407;48.884;9.126;2023-03-19T06:18:01;11.68;;;5.00;;
842;SDS011;407;48.884;9.126;2023-03-19T06:20:27;13.67;;;5.50;;
842;SDS011;407;48.884;9.126;2023-03-19T06:22:52;9.70;;;5.00;;
842;SDS011;407;48.884;9.126;2023-03-19T06:25:18;10.67;;;5.27;;
842;SDS011;407;48.884;9.126;2023-03-19T06:27:43;9.00;;;4.70;;
842;SDS011;407;48.884;9.126;2023-03-19T06:30:09;9.50;;;4.45;;
842;SDS011;407;48.884;9.126;2023-03-19T06:32:35;10.20;;;4.43;;
842;SDS011;407;48.884;9.126;2023-03-19T06:35:01;12.02;;;5.00;;
842;SDS011;407;48.884;9.126;2023-03-19T06:37:27;10.52;;;4.50;;
842;SDS011;407;48.884;9.126;2023-03-19T06:39:52;8.60;;;3.40;;
842;SDS011;407;48.884;9.126;2023-03-19T06:42:21;7.60;;;3.00;;
842;SDS011;407;48.884;9.126;2023-03-19T06:44:47;6.53;;;2.90;;
842;SDS011;407;48.884;9.126;2023-03-19T06:47:13;10.13;;;3.60;;
842;SDS011;407;48.884;9.126;2023-03-19T06:49:39;6.20;;;2.83;;
842;SDS011;407;48.884;9.126;2023-03-19T06:52:05;8.80;;;3.20;;
842;SDS011;407;48.884;9.126;2023-03-19T06:54:31;6.33;;;2.80;;
842;SDS011;407;48.884;9.126;2023-03-19T06:56:57;6.63;;;2.67;;
842;SDS011;407;48.884;9.126;2023-03-19T06:59:23;6.90;;;2.80;;
842;SDS011;407;48.884;9.126;2023-03-19T07:01:49;10.10;;;2.90;;
842;SDS011;407;48.884;9.126;2023-03-19T07:04:16;8.82;;;3.22;;
842;SDS011;407;48.884;9.126;2023-03-19T07:06:42;7.10;;;2.50;;
842;SDS011;407;48.884;9.126;2023-03-19T07:09:08;6.87;;;2.70;;
842;SDS011;407;48.884;9.126;2023-03-19T07:11:35;8.13;;;3.25;;
842;SDS011;407;48.884;9.126;2023-03-19T07:14:00;8.00;;;2.90;;
842;SDS011;407;48.884;9.126;2023-03-19T07:16:26;9.05;;;3.35;;
842;SDS011;407;48.884;9.126;2023-03-19T07:18:52;9.63;;;3.50;;
842;SDS011;407;48.884;9.126;2023-03-19T07:21:17;8.60;;;3.30;;
842;SDS011;407;48.884;9.126;2023-03-19T07:23:43;9.43;;;4.28;;
842;SDS011;407;48.884;9.126;2023-03-19T07:26:10;7.00;;;3.20;;
842;SDS011;407;48.884;9.126;2023-03-19T07:28:37;8.63;;;3.60;;
842;SDS011;407;48.884;9.126;2023-03-19T07:31:02;9.00;;;3.70;;
842;SDS011;407;48.884;9.126;2023-03-19T07:33:28;8.60;;;3.38;;
842;SDS011;407;48.884;9.126;2023-03-19T07:35:54;8.43;;;3.30;;
842;SDS011;407;48.884;9.126;2023-03-19T07:38:20;8.95;;;3.65;;
842;SDS011;407;48.884;9.126;2023-03-19T07:40:45;10.00;;;3.60;;
842;SDS011;407;48.884;9.126;2023-03-19T07:43:11;8.00;;;3.50;;
842;SDS011;407;48.884;9.126;2023-03-19T07:45:37;8.40;;;3.63;;
842;SDS011;407;48.884;9.126;2023-03-19T07:48:02;8.80;;;3.90;;
842;SDS011;407;48.884;9.126;2023-03-19T07:50:29;10.93;;;3.72;;
842;SDS011;407;48.884;9.126;2023-03-19T07:52:55;8.25;;;3.67;;
842;SDS011;407;48.884;9.126;2023-03-19T07:55:21;8.70;;;3.88;;
842;SDS011;407;48.884;9.126;2023-03-19T07:57:47;9.40;;;4.00;;
842;SDS011;407;48.884;9.126;2023-03-19T08:00:12;10.05;;;4.35;;
842;SDS011;407;48.884;9.126;2023-03-19T08:02:38;9.00;;;4.50;;
842;SDS011;407;48.884;9.126;2023-03-19T08:05:06;9.50;;;4.60;;
842;SDS011;407;48.884;9.126;2023-03-19T08:07:33;8.80;;;3.55;;
842;SDS011;407;48.884;9.126;2023-03-19T08:09:59;8.15;;;3.30;;
842;SDS011;407;48.884;9.126;2023-03-19T08:12:24;8.40;;;3.53;;
842;SDS011;407;48.884;9.126;2023-03-19T08:14:50;9.15;;;3.50;;
842;SDS011;407;48.884;9.126;2023-03-19T08:17:16;9.45;;;3.80;;
842;SDS011;407;48.884;9.126;2023-03-19T08:19:41;8.53;;;3.40;;
842;SDS011;407;48.884;9.126;2023-03-19T08:22:07;7.32;;;2.85;;
842;SDS011;407;48.884;9.126;2023-03-19T08:24:33;7.33;;;3.10;;
842;SDS011;407;48.884;9.126;2023-03-19T08:26:59;10.18;;;2.92;;
842;SDS011;407;48.884;9.126;2023-03-19T08:29:25;8.40;;;3.47;;
842;SDS011;407;48.884;9.126;2023-03-19T08:31:51;8.02;;;3.05;;
842;SDS011;407;48.884;9.126;2023-03-19T08:34:18;8.50;;;3.00;;
842;SDS011;407;48.884;9.126;2023-03-19T08:36:44;7.40;;;2.80;;
842;SDS011;407;48.884;9.126;2023-03-19T08:39:10;8.20;;;3.30;;
842;SDS011;407;48.884;9.126;2023-03-19T08:41:36;8.43;;;3.20;;
842;SDS011;407;48.884;9.126;2023-03-19T08:44:01;7.60;;;3.20;;
842;SDS011;407;48.884;9.126;2023-03-19T08:46:27;7.88;;;3.33;;
842;SDS011;407;48.884;9.126;2023-03-19T08:48:53;9.20;;;3.40;;
842;SDS011;407;48.884;9.126;2023-03-19T08:51:19;8.02;;;3.25;;
842;SDS011;407;48.884;9.126;2023-03-19T08:53:45;8.05;;;3.10;;
842;SDS011;407;48.884;9.126;2023-03-19T08:56:11;8.30;;;3.40;;
842;SDS011;407;48.884;9.126;2023-03-19T08:58:36;7.23;;;3.13;;
842;SDS011;407;48.884;9.126;2023-03-19T09:01:10;8.05;;;3.20;;
842;SDS011;407;48.884;9.126;2023-03-19T09:03:38;8.23;;;3.30;;
842;SDS011;407;48.884;9.126;2023-03-19T09:06:06;9.23;;;3.30;;
842;SDS011;407;48.884;9.126;2023-03-19T09:08:33;7.15;;;2.95;;
842;SDS011;407;48.884;9.126;2023-03-19T09:11:01;7.80;;;3.50;;
842;SDS011;407;48.884;9.126;2023-03-19T09:13:26;8.15;;;3.63;;
842;SDS011;407;48.884;9.126;2023-03-19T09:15:52;10.18;;;3.63;;
842;SDS011;407;48.884;9.126;2023-03-19T09:18:18;8.47;;;3.37;;
842;SDS011;407;48.884;9.126;2023-03-19T09:20:45;9.00;;;3.30;;
842;SDS011;407;48.884;9.126;2023-03-19T09:23:11;9.25;;;3.72;;
842;SDS011;407;48.884;9.126;2023-03-19T09:25:37;10.85;;;3.80;;
842;SDS011;407;48.884;9.126;2023-03-19T09:28:02;8.20;;;3.50;;
842;SDS011;407;48.884;9.126;2023-03-19T09:30:28;8.40;;;3.80;;
842;SDS011;407;48.884;9.126;2023-03-19T09:32:54;8.43;;;4.70;;
842;SDS011;407;48.884;9.126;2023-03-19T09:35:20;8.70;;;4.57;;
842;SDS011;407;48.884;9.126;2023-03-19T09:37:47;7.90;;;4.70;;
842;SDS011;407;48.884;9.126;2023-03-19T09:40:22;9.07;;;5.70;;
842;SDS011;407;48.884;9.126;2023-03-19T09:45:25;8.70;;;5.40;;
842;SDS011;407;48.884;9.126;2023-03-19T09:47:53;8.93;;;5.40;;
842;SDS011;407;48.884;9.126;2023-03-19T09:50:23;9.98;;;6.20;;
842;SDS011;407;48.884;9.126;2023-03-19T09:52:55;8.70;;;6.43;;
842;SDS011;407;48.884;9.126;2023-03-19T09:55:37;8.90;;;6.03;;
842;SDS011;407;48.884;9.126;2023-03-19T09:58:21;8.70;;;5.87;;
842;SDS011;407;48.884;9.126;2023-03-19T10:00:52;8.70;;;5.50;;
842;SDS011;407;48.884;9.126;2023-03-19T10:06:16;10.65;;;4.60;;
842;SDS011;407;48.884;9.126;2023-03-19T10:16:42;7.50;;;2.70;;
842;SDS011;407;48.884;9.126;2023-03-19T10:19:12;7.57;;;2.67;;
842;SDS011;407;48.884;9.126;2023-03-19T10:21:47;6.53;;;2.65;;
842;SDS011;407;48.884;9.126;2023-03-19T10:26:58;6.30;;;2.70;;
842;SDS011;407;48.884;9.126;2023-03-19T10:29:26;6.93;;;2.55;;
842;SDS011;407;48.884;9.126;2023-03-19T10:34:58;6.10;;;2.50;;
842;SDS011;407;48.884;9.126;2023-03-19T10:37:27;6.05;;;2.40;;
842;SDS011;407;48.884;9.126;2023-03-19T10:39:54;6.82;;;2.80;;
842;SDS011;407;48.884;9.126;2023-03-19T10:45:35;7.28;;;2.63;;
842;SDS011;407;48.884;9.126;2023-03-19T10:48:01;8.30;;;2.60;;
842;SDS011;407;48.884;9.126;2023-03-19T10:50:33;6.73;;;2.10;;
842;SDS011;407;48.884;9.126;2023-03-19T10:53:05;6.13;;;2.40;;
842;SDS011;407;48.884;9.126;2023-03-19T10:56:01;6.50;;;2.80;;
842;SDS011;407;48.884;9.126;2023-03-19T10:58:30;8.57;;;3.08;;
842;SDS011;407;48.884;9.126;2023-03-19T11:01:05;7.57;;;2.88;;
842;SDS011;407;48.884;9.126;2023-03-19T11:03:33;7.88;;;3.50;;
842;SDS011;407;48.884;9.126;2023-03-19T11:06:02;8.07;;;3.30;;
842;SDS011;407;48.884;9.126;2023-03-19T11:11:34;7.23;;;2.53;;
842;SDS011;407;48.884;9.126;2023-03-19T11:19:20;7.10;;;3.03;;
842;SDS011;407;48.884;9.126;2023-03-19T11:24:35;6.68;;;2.70;;
842;SDS011;407;48.884;9.126;2023-03-19T11:27:02;6.20;;;2.60;;
842;SDS011;407;48.884;9.126;2023-03-19T11:29:28;8.70;;;3.30;;
842;SDS011;407;48.884;9.126;2023-03-19T11:34:41;8.50;;;3.08;;
842;SDS011;407;48.884;9.126;2023-03-19T11:37:19;7.75;;;2.83;;
842;SDS011;407;48.884;9.126;2023-03-19T11:42:55;6.80;;;2.70;;
842;SDS011;407;48.884;9.126;2023-03-19T11:45:53;9.02;;;2.80;;
842;SDS011;407;48.884;9.126;2023-03-19T11:48:28;7.47;;;3.08;;
842;SDS011;407;48.884;9.126;2023-03-19T11:51:08;8.43;;;3.55;;
842;SDS011;407;48.884;9.126;2023-03-19T11:53:58;6.20;;;2.60;;
842;SDS011;407;48.884;9.126;2023-03-19T11:56:30;7.00;;;3.05;;
842;SDS011;407;48.884;9.126;2023-03-19T12:15:32;7.27;;;3.03;;
842;SDS011;407;48.884;9.126;2023-03-19T12:30:31;6.60;;;2.80;;
842;SDS011;407;48.884;9.126;2023-03-19T12:35:28;6.90;;;2.90;;
842;SDS011;407;48.884;9.126;2023-03-19T12:38:12;7.25;;;2.70;;
842;SDS011;407;48.884;9.126;2023-03-19T12:40:51;5.80;;;2.08;;
842;SDS011;407;48.884;9.126;2023-03-19T12:43:29;6.80;;;2.30;;
842;SDS011;407;48.884;9.126;2023-03-19T12:46:12;6.85;;;2.08;;
842;SDS011;407;48.884;9.126;2023-03-19T12:48:52;6.10;;;2.00;;
842;SDS011;407;48.884;9.126;2023-03-19T12:51:25;6.30;;;2.30;;
842;SDS011;407;48.884;9.126;2023-03-19T12:54:01;6.32;;;2.20;;
842;SDS011;407;48.884;9.126;2023-03-19T12:57:33;6.30;;;2.13;;
842;SDS011;407;48.884;9.126;2023-03-19T13:08:02;6.60;;;2.07;;
842;SDS011;407;48.884;9.126;2023-03-19T13:10:48;6.70;;;2.10;;
842;SDS011;407;48.884;9.126;2023-03-19T13:16:28;5.70;;;1.80;;
842;SDS011;407;48.884;9.126;2023-03-19T13:19:09;7.47;;;2.20;;
842;SDS011;407;48.884;9.126;2023-03-19T13:21:51;5.80;;;1.80;;
842;SDS011;407;48.884;9.126;2023-03-19T13:26:49;6.72;;;1.85;;
842;SDS011;407;48.884;9.126;2023-03-19T13:29:23;8.52;;;2.28;;
842;SDS011;407;48.884;9.126;2023-03-19T13:32:02;6.68;;;2.22;;
842;SDS011;407;48.884;9.126;2023-03-19T13:34:35;7.60;;;1.95;;
842;SDS011;407;48.884;9.126;2023-03-19T13:37:11;8.85;;;1.80;;
842;SDS011;407;48.884;9.126;2023-03-19T13:39:42;8.23;;;2.60;;
842;SDS011;407;48.884;9.126;2023-03-19T13:42:22;7.22;;;2.40;;
842;SDS011;407;48.884;9.126;2023-03-19T13:45:24;6.50;;;1.85;;
842;SDS011;407;48.884;9.126;2023-03-19T13:48:42;8.23;;;2.30;;
842;SDS011;407;48.884;9.126;2023-03-19T13:51:01;10.07;;;4.40;;
842;SDS011;407;48.884;9.126;2023-03-19T13:59:34;7.68;;;2.55;;
842;SDS011;407;48.884;9.126;2023-03-19T14:05:14;7.80;;;2.90;;
842;SDS011;407;48.884;9.126;2023-03-19T14:07:43;8.27;;;2.40;;
842;SDS011;407;48.884;9.126;2023-03-19T14:10:25;6.15;;;1.80;;
842;SDS011;407;48.884;9.126;2023-03-19T14:13:08;7.50;;;2.20;;
842;SDS011;407;48.884;9.126;2023-03-19T14:15:49;6.20;;;2.20;;
842;SDS011;407;48.884;9.126;2023-03-19T14:18:16;10.70;;;2.30;;
842;SDS011;407;48.884;9.126;2023-03-19T14:20:50;6.67;;;2.40;;
842;SDS011;407;48.884;9.126;2023-03-19T14:23:23;8.32;;;2.95;;
842;SDS011;407;48.884;9.126;2023-03-19T14:28:24;7.40;;;2.83;;
842;SDS011;407;48.884;9.126;2023-03-19T14:30:56;10.98;;;2.40;;
842;SDS011;407;48.884;9.126;2023-03-19T14:36:14;7.35;;;2.38;;
842;SDS011;407;48.884;9.126;2023-03-19T14:38:55;5.90;;;2.10;;
842;SDS011;407;48.884;9.126;2023-03-19T14:42:04;6.30;;;2.15;;
842;SDS011;407;48.884;9.126;2023-03-19T14:47:32;6.27;;;1.90;;
842;SDS011;407;48.884;9.126;2023-03-19T14:53:18;6.00;;;1.70;;
842;SDS011;407;48.884;9.126;2023-03-19T14:56:01;6.47;;;1.70;;
842;SDS011;407;48.884;9.126;2023-03-19T14:58:51;6.20;;;1.45;;
842;SDS011;407;48.884;9.126;2023-03-19T15:01:19;6.30;;;2.20;;
842;SDS011;407;48.884;9.126;2023-03-19T15:03:50;8.65;;;2.20;;
842;SDS011;407;48.884;9.126;2023-03-19T15:06:17;7.63;;;1.85;;
842;SDS011;407;48.884;9.126;2023-03-19T15:08:43;7.97;;;2.10;;
842;SDS011;407;48.884;9.126;2023-03-19T15:16:58;5.90;;;2.00;;
842;SDS011;407;48.884;9.126;2023-03-19T15:19:26;7.57;;;2.00;;
842;SDS011;407;48.884;9.126;2023-03-19T15:27:33;6.90;;;2.00;;
842;SDS011;407;48.884;9.126;2023-03-19T15:29:59;5.97;;;2.00;;
842;SDS011;407;48.884;9.126;2023-03-19T15:32:34;7.70;;;2.00;;
842;SDS011;407;48.884;9.126;2023-03-19T15:35:06;6.40;;;2.10;;
842;SDS011;407;48.884;9.126;2023-03-19T15:37:37;6.13;;;1.90;;
842;SDS011;407;48.884;9.126;2023-03-19T15:40:07;6.70;;;1.90;;
842;SDS011;407;48.884;9.126;2023-03-19T15:42:37;7.68;;;2.20;;
842;SDS011;407;48.884;9.126;2023-03-19T15:47:30;6.53;;;2.30;;
842;SDS011;407;48.884;9.126;2023-03-19T15:50:00;6.30;;;2.03;;
842;SDS011;407;48.884;9.126;2023-03-19T15:52:29;7.20;;;2.40;;
842;SDS011;407;48.884;9.126;2023-03-19T15:54:59;10.70;;;2.50;;
842;SDS011;407;48.884;9.126;2023-03-19T15:57:26;7.35;;;2.60;;
842;SDS011;407;48.884;9.126;2023-03-19T15:59:53;7.30;;;2.70;;
842;SDS011;407;48.884;9.126;2023-03-19T16:04:50;12.05;;;5.20;;
842;SDS011;407;48.884;9.126;2023-03-19T16:07:25;10.18;;;4.47;;
842;SDS011;407;48.884;9.126;2023-03-19T16:09:53;9.30;;;2.88;;
842;SDS011;407;48.884;9.126;2023-03-19T16:12:38;10.87;;;4.43;;
842;SDS011;407;48.884;9.126;2023-03-19T16:17:52;10.50;;;3.80;;
842;SDS011;407;48.884;9.126;2023-03-19T16:20:18;9.02;;;4.28;;
842;SDS011;407;48.884;9.126;2023-03-19T16:22:48;9.10;;;4.00;;
842;SDS011;407;48.884;9.126;2023-03-19T16:25:19;9.27;;;3.63;;
842;SDS011;407;48.884;9.126;2023-03-19T16:27:48;10.70;;;3.50;;
842;SDS011;407;48.884;9.126;2023-03-19T16:32:41;6.95;;;2.28;;
842;SDS011;407;48.884;9.126;2023-03-19T16:35:13;7.10;;;2.50;;
842;SDS011;407;48.884;9.126;2023-03-19T16:37:44;8.88;;;3.80;;
842;SDS011;407;48.884;9.126;2023-03-19T16:42:44;8.30;;;2.33;;
842;SDS011;407;48.884;9.126;2023-03-19T16:47:46;5.70;;;2.00;;
842;SDS011;407;48.884;9.126;2023-03-19T16:50:14;7.05;;;2.33;;
842;SDS011;407;48.884;9.126;2023-03-19T16:52:41;7.60;;;3.10;;
842;SDS011;407;48.884;9.126;2023-03-19T16:55:19;8.70;;;3.60;;
842;SDS011;407;48.884;9.126;2023-03-19T16:57:49;7.10;;;2.90;;
842;SDS011;407;48.884;9.126;2023-03-19T17:00:21;29.15;;;16.25;;
842;SDS011;407;48.884;9.126;2023-03-19T17:02:48;36.58;;;18.08;;
842;SDS011;407;48.884;9.126;2023-03-19T17:05:15;7.63;;;3.03;;
842;SDS011;407;48.884;9.126;2023-03-19T17:07:41;7.17;;;2.73;;
842;SDS011;407;48.884;9.126;2023-03-19T17:10:11;7.60;;;2.70;;
842;SDS011;407;48.884;9.126;2023-03-19T17:12:38;7.20;;;2.50;;
842;SDS011;407;48.884;9.126;2023-03-19T17:15:04;7.90;;;2.30;;
842;SDS011;407;48.884;9.126;2023-03-19T17:17:31;7.93;;;2.63;;
842;SDS011;407;48.884;9.126;2023-03-19T17:19:57;9.90;;;2.63;;
842;SDS011;407;48.884;9.126;2023-03-19T17:22:23;8.23;;;2.72;;
842;SDS011;407;48.884;9.126;2023-03-19T17:24:51;7.50;;;2.63;;
842;SDS011;407;48.884;9.126;2023-03-19T17:27:17;6.72;;;2.63;;
842;SDS011;407;48.884;9.126;2023-03-19T17:29:43;7.93;;;2.22;;
842;SDS011;407;48.884;9.126;2023-03-19T17:32:13;8.27;;;2.97;;
842;SDS011;407;48.884;9.126;2023-03-19T17:34:42;7.80;;;2.42;;
842;SDS011;407;48.884;9.126;2023-03-19T17:37:11;6.37;;;2.37;;
842;SDS011;407;48.884;9.126;2023-03-19T17:39:39;8.10;;;2.73;;
842;SDS011;407;48.884;9.126;2023-03-19T17:42:22;8.38;;;3.10;;
842;SDS011;407;48.884;9.126;2023-03-19T17:44:48;9.85;;;2.90;;
842;SDS011;407;48.884;9.126;2023-03-19T17:47:17;7.90;;;3.17;;
842;SDS011;407;48.884;9.126;2023-03-19T17:49:43;7.97;;;2.60;;
842;SDS011;407;48.884;9.126;2023-03-19T17:52:16;6.93;;;2.63;;
842;SDS011;407;48.884;9.126;2023-03-19T17:54:43;9.07;;;3.30;;
842;SDS011;407;48.884;9.126;2023-03-19T17:57:10;7.57;;;2.60;;
842;SDS011;407;48.884;9.126;2023-03-19T17:59:37;6.07;;;2.50;;
842;SDS011;407;48.884;9.126;2023-03-19T18:02:46;7.10;;;2.50;;
842;SDS011;407;48.884;9.126;2023-03-19T18:04:54;5.88;;;2.05;;
842;SDS011;407;48.884;9.126;2023-03-19T18:07:20;5.47;;;2.00;;
842;SDS011;407;48.884;9.126;2023-03-19T18:09:45;6.57;;;2.28;;
842;SDS011;407;48.884;9.126;2023-03-19T18:12:11;5.80;;;2.20;;